createdAt,value
2019-04-16T00:00:11.809Z,72.60
2019-04-16T00:02:51.400Z,73.10
2019-04-16T00:05:30.609Z,73.80
2019-04-16T00:08:28.293Z,74.30
2019-04-16T00:11:06.923Z,74.40
2019-04-16T00:13:56.095Z,74.70
2019-04-16T00:16:28.786Z,75.00
2019-04-16T00:19:04.435Z,75.10
2019-04-16T00:21:51.800Z,75.30
2019-04-16T00:24:35.564Z,75.30
2019-04-16T00:27:07.522Z,75.90
2019-04-16T00:29:39.935Z,76.00
2019-04-16T00:32:26.141Z,76.40
2019-04-16T00:34:58.192Z,76.80
2019-04-16T00:37:30.247Z,76.40
2019-04-16T00:40:02.485Z,76.90
2019-04-16T00:42:34.536Z,76.70
2019-04-16T00:45:08.169Z,76.70
2019-04-16T00:47:40.129Z,76.70
2019-04-16T00:50:12.762Z,76.60
2019-04-16T00:52:44.711Z,76.50
2019-04-16T00:55:16.740Z,76.50
2019-04-16T00:57:50.072Z,76.60
2019-04-16T01:00:22.171Z,76.50
2019-04-16T01:02:54.120Z,76.50
2019-04-16T01:05:26.079Z,76.50
2019-04-16T01:07:58.025Z,76.10
2019-04-16T01:10:30.823Z,75.90
2019-04-16T01:13:03.036Z,76.10
2019-04-16T01:15:35.602Z,76.70
2019-04-16T01:18:08.887Z,76.90
2019-04-16T01:20:43.311Z,77.20
2019-04-16T01:23:17.793Z,77.50
2019-04-16T01:25:49.474Z,77.70
2019-04-16T01:28:23.826Z,77.50
2019-04-16T01:31:14.602Z,76.80
2019-04-16T01:34:05.700Z,76.20
2019-04-16T01:36:54.987Z,75.70
2019-04-16T01:39:28.628Z,75.40
2019-04-16T01:42:00.572Z,75.20
2019-04-16T01:44:32.526Z,74.50
2019-04-16T01:47:05.331Z,74.00
2019-04-16T01:49:39.321Z,73.90
2019-04-16T01:52:11.604Z,73.60
2019-04-16T01:54:43.589Z,73.20
2019-04-16T01:57:15.586Z,73.30
2019-04-16T01:59:47.966Z,73.60
2019-04-16T02:02:19.936Z,74.10
2019-04-16T02:04:52.818Z,75.50
2019-04-16T02:07:27.720Z,76.70
2019-04-16T02:09:58.511Z,77.50
2019-04-16T02:12:30.458Z,78.50
2019-04-16T02:15:02.663Z,79.50
2019-04-16T02:17:34.674Z,80.10
2019-04-16T02:20:07.606Z,81.20
2019-04-16T02:22:42.284Z,81.90
2019-04-16T02:25:13.380Z,82.50
2019-04-16T02:27:45.335Z,82.90
2019-04-16T02:30:17.615Z,82.90
2019-04-16T02:32:50.006Z,83.00
2019-04-16T02:35:22.002Z,83.20
2019-04-16T02:37:54.712Z,83.20
2019-04-16T02:40:26.679Z,83.20
2019-04-16T02:43:04.236Z,83.40
2019-04-16T02:45:32.310Z,83.50
2019-04-16T02:48:04.279Z,83.50
2019-04-16T02:51:06.015Z,83.60
2019-04-16T02:54:02.586Z,83.90
2019-04-16T02:56:53.084Z,83.80
2019-04-16T02:59:31.239Z,83.70
2019-04-16T03:02:13.247Z,83.60
2019-04-16T03:04:52.997Z,83.50
2019-04-16T03:07:24.972Z,83.50
2019-04-16T03:10:01.346Z,83.70
2019-04-16T03:12:31.651Z,83.80
2019-04-16T03:15:03.648Z,83.60
2019-04-16T03:17:42.945Z,83.70
2019-04-16T03:20:15.894Z,83.80
2019-04-16T03:22:47.854Z,83.80
2019-04-16T03:25:19.830Z,84.00
2019-04-16T03:27:54.478Z,84.40
2019-04-16T03:30:25.788Z,84.60
2019-04-16T03:32:57.793Z,84.60
2019-04-16T03:35:29.756Z,84.40
2019-04-16T03:38:05.311Z,84.30
2019-04-16T03:40:35.383Z,84.60
2019-04-16T03:43:08.620Z,84.70
2019-04-16T03:45:41.172Z,84.90
2019-04-16T03:48:13.406Z,85.00
2019-04-16T03:50:45.784Z,84.90
2019-04-16T03:53:18.446Z,85.10
2019-04-16T03:55:50.879Z,85.20
2019-04-16T03:58:22.835Z,85.20
2019-04-16T04:00:54.786Z,85.10
2019-04-16T04:03:26.923Z,85.10
2019-04-16T04:05:58.903Z,85.00
2019-04-16T04:08:30.868Z,84.80
2019-04-16T04:11:02.993Z,84.80
2019-04-16T04:13:34.966Z,85.10
2019-04-16T04:16:07.406Z,85.20
2019-04-16T04:18:42.928Z,85.60
2019-04-16T04:21:13.879Z,85.90
2019-04-16T04:23:45.846Z,86.30
2019-04-16T04:26:17.900Z,86.30
2019-04-16T04:28:51.591Z,86.50
2019-04-16T04:31:23.827Z,87.00
2019-04-16T04:33:56.229Z,87.60
2019-04-16T04:36:28.612Z,87.30
2019-04-16T04:39:00.900Z,87.30
2019-04-16T04:41:33.273Z,87.30
2019-04-16T04:44:05.425Z,86.70
2019-04-16T04:46:37.361Z,86.10
2019-04-16T04:49:09.659Z,85.50
2019-04-16T04:51:43.505Z,85.00
2019-04-16T04:54:16.195Z,84.60
2019-04-16T04:56:48.900Z,84.60
2019-04-16T04:59:21.292Z,84.70
2019-04-16T05:01:53.645Z,85.00
2019-04-16T05:04:31.866Z,84.50
2019-04-16T05:07:05.529Z,84.50
2019-04-16T05:09:38.127Z,84.30
2019-04-16T05:12:10.413Z,83.50
2019-04-16T05:14:58.511Z,84.00
2019-04-16T05:17:30.466Z,84.10
2019-04-16T05:20:03.122Z,84.20
2019-04-16T05:22:35.710Z,84.50
2019-04-16T05:25:08.395Z,84.70
2019-04-16T05:27:41.524Z,84.80
2019-04-16T05:30:13.885Z,84.90
2019-04-16T05:32:45.864Z,85.40
2019-04-16T05:35:17.819Z,85.90
2019-04-16T05:37:51.551Z,85.60
2019-04-16T05:40:24.012Z,84.90
2019-04-16T05:42:58.951Z,84.30
2019-04-16T05:45:30.043Z,83.70
2019-04-16T05:48:02.007Z,85.20
2019-04-16T05:50:33.970Z,84.10
2019-04-16T05:53:08.243Z,83.60
2019-04-16T05:56:00.657Z,82.50
2019-04-16T05:58:33.154Z,82.60
2019-04-16T06:01:23.991Z,81.50
2019-04-16T06:03:55.937Z,81.80
2019-04-16T06:06:28.757Z,81.20
2019-04-16T06:09:01.541Z,81.40
2019-04-16T06:11:36.507Z,80.10
2019-04-16T06:14:26.149Z,81.40
2019-04-16T06:17:15.550Z,79.40
2019-04-16T06:20:05.294Z,78.50
2019-04-16T06:23:00.662Z,78.40
2019-04-16T06:25:41.024Z,78.80
2019-04-16T06:28:20.224Z,77.30
2019-04-16T06:31:16.851Z,77.20
2019-04-16T06:34:14.224Z,76.90
2019-04-16T06:37:11.152Z,76.40
2019-04-16T06:40:05.269Z,77.10
2019-04-16T06:42:51.511Z,77.00
2019-04-16T06:45:36.512Z,76.40
2019-04-16T06:48:12.744Z,75.90
2019-04-16T06:51:00.570Z,76.00
2019-04-16T06:53:54.003Z,76.20
2019-04-16T06:56:57.352Z,75.80
2019-04-16T06:59:43.634Z,73.60
2019-04-16T07:02:37.578Z,72.50
2019-04-16T07:05:24.952Z,72.80
2019-04-16T07:08:19.889Z,73.10
2019-04-16T07:10:57.346Z,71.60
2019-04-16T07:13:30.691Z,71.50
2019-04-16T07:16:04.988Z,70.20
2019-04-16T07:18:39.337Z,70.00
2019-04-16T07:21:14.522Z,66.40
2019-04-16T07:23:46.898Z,66.40
2019-04-16T07:26:19.664Z,66.30
2019-04-16T07:29:01.014Z,63.80
2019-04-16T07:31:40.162Z,65.00
2019-04-16T07:34:33.600Z,64.50
2019-04-16T07:37:27.618Z,64.60
2019-04-16T07:40:27.305Z,63.10
2019-04-16T07:43:18.458Z,64.60
2019-04-16T07:45:55.117Z,61.40
2019-04-16T07:48:33.289Z,57.40
2019-04-16T07:51:24.588Z,60.20
2019-04-16T07:54:22.335Z,57.20
2019-04-16T07:56:56.175Z,59.50
2019-04-16T07:59:32.266Z,56.80
2019-04-16T08:02:03.407Z,57.10
2019-04-16T08:04:36.447Z,56.10
2019-04-16T08:07:08.651Z,54.10
2019-04-16T08:09:40.724Z,51.90
2019-04-16T08:12:28.996Z,55.90
2019-04-16T08:14:46.492Z,53.60
2019-04-16T08:17:19.359Z,51.90
2019-04-16T08:19:51.443Z,51.30
2019-04-16T08:22:23.617Z,53.20
2019-04-16T08:25:03.053Z,49.70
2019-04-16T08:27:33.443Z,51.30
2019-04-16T08:30:07.924Z,49.00
2019-04-16T08:32:40.052Z,49.20
2019-04-16T08:35:12.767Z,51.50
2019-04-16T08:37:49.332Z,48.60
2019-04-16T08:40:18.692Z,47.60
2019-04-16T08:42:50.820Z,48.60
2019-04-16T08:45:23.328Z,48.70
2019-04-16T08:47:56.283Z,48.50
2019-04-16T08:50:28.689Z,48.90
2019-04-16T08:53:01.752Z,45.20
2019-04-16T08:55:34.219Z,44.30
2019-04-16T08:58:07.538Z,45.40
2019-04-16T09:00:40.578Z,45.90
2019-04-16T09:03:15.400Z,45.70
2019-04-16T09:05:47.069Z,44.50
2019-04-16T09:08:28.451Z,45.10
2019-04-16T09:11:03.436Z,45.80
2019-04-16T09:13:41.213Z,42.30
2019-04-16T09:16:13.359Z,44.00
2019-04-16T09:19:13.393Z,42.20
2019-04-16T09:21:45.486Z,41.20
2019-04-16T09:25:04.132Z,42.20
2019-04-16T09:27:28.645Z,44.00
2019-04-16T09:30:21.261Z,40.60
2019-04-16T09:33:07.400Z,42.80
2019-04-16T09:35:50.523Z,42.30
2019-04-16T09:38:35.675Z,39.50
2019-04-16T09:41:13.225Z,41.30
2019-04-16T09:43:48.550Z,41.40
2019-04-16T09:46:44.674Z,41.20
2019-04-16T09:48:55.134Z,40.60
2019-04-16T09:51:27.700Z,37.90
2019-04-16T09:54:00.366Z,39.40
2019-04-16T09:56:33.636Z,39.30
2019-04-16T09:59:26.954Z,38.40
2019-04-16T10:02:04.736Z,38.70
2019-04-16T10:04:37.359Z,38.60
2019-04-16T10:07:09.908Z,38.90
2019-04-16T10:09:42.745Z,37.40
2019-04-16T10:12:15.143Z,37.50
2019-04-16T10:14:47.512Z,36.60
2019-04-16T10:17:19.636Z,37.60
2019-04-16T10:19:51.699Z,38.60
2019-04-16T10:22:24.165Z,37.50
2019-04-16T10:25:15.369Z,35.90
2019-04-16T10:27:53.177Z,38.80
2019-04-16T10:30:43.684Z,38.10
2019-04-16T10:33:17.045Z,36.70
2019-04-16T10:35:49.578Z,35.60
2019-04-16T10:38:46.773Z,39.10
2019-04-16T10:41:38.070Z,36.90
2019-04-16T10:44:41.780Z,37.80
2019-04-16T10:47:31.381Z,36.10
2019-04-16T10:50:15.787Z,36.70
2019-04-16T10:53:08.892Z,37.10
2019-04-16T10:55:58.904Z,35.70
2019-04-16T10:58:39.145Z,36.90
2019-04-16T11:01:38.992Z,35.30
2019-04-16T11:04:31.211Z,35.70
2019-04-16T11:07:09.462Z,35.40
2019-04-16T11:09:42.565Z,37.80
2019-04-16T11:12:15.495Z,33.60
2019-04-16T11:14:48.156Z,35.90
2019-04-16T11:17:21.988Z,36.20
2019-04-16T11:19:54.560Z,34.70
2019-04-16T11:22:26.971Z,36.00
2019-04-16T11:25:00.233Z,35.30
2019-04-16T11:27:32.703Z,35.90
2019-04-16T11:30:07.522Z,35.70
2019-04-16T11:32:40.322Z,34.90
2019-04-16T11:35:16.688Z,36.00
2019-04-16T11:37:47.031Z,35.00
2019-04-16T11:40:19.567Z,34.70
2019-04-16T11:42:51.643Z,34.60
2019-04-16T11:45:24.226Z,35.60
2019-04-16T11:47:58.506Z,35.40
2019-04-16T11:50:30.995Z,34.70
2019-04-16T11:53:03.390Z,34.70
2019-04-16T11:55:35.834Z,36.70
2019-04-16T11:58:17.487Z,35.00
2019-04-16T12:00:55.955Z,33.90
2019-04-16T12:03:36.572Z,34.80
2019-04-16T12:06:28.252Z,33.30
2019-04-16T12:09:32.931Z,33.60
2019-04-16T12:12:32.911Z,33.40
2019-04-16T12:15:24.198Z,35.80
2019-04-16T12:18:04.697Z,34.20
2019-04-16T12:21:07.455Z,34.70
2019-04-16T12:23:50.091Z,33.10
2019-04-16T12:26:36.727Z,31.70
2019-04-16T12:29:30.303Z,31.70
2019-04-16T12:32:19.888Z,33.30
2019-04-16T12:35:10.291Z,32.40
2019-04-16T12:37:59.814Z,33.30
2019-04-16T12:40:44.800Z,34.10
2019-04-16T12:43:22.544Z,34.00
2019-04-16T12:46:12.758Z,33.00
2019-04-16T12:49:06.735Z,29.80
2019-04-16T12:51:55.790Z,31.90
2019-04-16T12:54:50.028Z,34.20
2019-04-16T12:57:29.370Z,32.80
2019-04-16T13:00:09.148Z,33.20
2019-04-16T13:03:16.371Z,33.10
2019-04-16T13:06:04.627Z,31.50
2019-04-16T13:08:43.545Z,31.50
2019-04-16T13:11:24.332Z,34.00
2019-04-16T13:14:13.969Z,34.00
2019-04-16T13:17:03.567Z,35.10
2019-04-16T13:19:57.624Z,31.20
2019-04-16T13:22:34.945Z,32.80
2019-04-16T13:25:22.019Z,32.90
2019-04-16T13:27:54.469Z,33.00
2019-04-16T13:30:26.555Z,33.30
2019-04-16T13:33:00.003Z,31.80
2019-04-16T13:35:32.450Z,32.20
2019-04-16T13:38:08.197Z,33.30
2019-04-16T13:40:41.392Z,33.00
2019-04-16T13:43:14.677Z,32.10
2019-04-16T13:45:46.762Z,32.50
2019-04-16T13:48:29.954Z,30.70
2019-04-16T13:51:05.556Z,32.70
2019-04-16T13:53:49.895Z,31.80
2019-04-16T13:56:25.482Z,33.00
2019-04-16T13:59:12.591Z,32.00
2019-04-16T14:02:17.281Z,32.20
2019-04-16T14:04:46.510Z,30.10
2019-04-16T14:07:18.588Z,32.10
2019-04-16T14:09:50.755Z,30.80
2019-04-16T14:12:40.859Z,32.40
2019-04-16T14:14:57.106Z,32.60
2019-04-16T14:17:30.242Z,32.50
2019-04-16T14:20:02.625Z,32.70
2019-04-16T14:22:34.995Z,31.40
2019-04-16T14:25:08.894Z,32.10
2019-04-16T14:27:41.758Z,31.40
2019-04-16T14:30:27.674Z,32.30
2019-04-16T14:33:00.755Z,33.50
2019-04-16T14:35:39.946Z,31.70
2019-04-16T14:38:09.878Z,32.10
2019-04-16T14:40:43.053Z,33.60
2019-04-16T14:43:17.740Z,32.40
2019-04-16T14:45:58.143Z,33.20
2019-04-16T14:48:26.394Z,33.30
2019-04-16T14:50:58.936Z,32.80
2019-04-16T14:53:51.323Z,33.90
2019-04-16T14:56:29.577Z,33.20
2019-04-16T14:59:34.126Z,32.40
2019-04-16T15:02:06.534Z,33.60
2019-04-16T15:04:57.811Z,33.30
2019-04-16T15:08:00.094Z,32.70
2019-04-16T15:10:53.226Z,34.30
2019-04-16T15:13:53.127Z,34.20
2019-04-16T15:16:40.682Z,34.70
2019-04-16T15:19:31.236Z,35.30
2019-04-16T15:22:21.095Z,35.10
2019-04-16T15:25:24.603Z,32.80
2019-04-16T15:28:15.060Z,32.80
2019-04-16T15:31:00.677Z,34.00
2019-04-16T15:33:44.501Z,33.30
2019-04-16T15:36:25.698Z,34.30
2019-04-16T15:39:12.673Z,35.50
2019-04-16T15:42:02.162Z,33.50
2019-04-16T15:44:52.719Z,34.20
2019-04-16T15:47:46.969Z,34.40
2019-04-16T15:50:37.924Z,37.60
2019-04-16T15:53:20.309Z,35.80
2019-04-16T15:56:10.548Z,35.30
2019-04-16T15:58:58.705Z,36.50
2019-04-16T16:02:02.261Z,35.30
2019-04-16T16:04:40.633Z,36.80
2019-04-16T16:07:15.743Z,36.00
2019-04-16T16:10:13.757Z,36.10
2019-04-16T16:12:44.098Z,35.80
2019-04-16T16:15:16.252Z,37.60
2019-04-16T16:17:49.660Z,39.10
2019-04-16T16:20:22.792Z,38.80
2019-04-16T16:22:58.148Z,38.30
2019-04-16T16:25:29.276Z,38.20
2019-04-16T16:28:01.366Z,38.00
2019-04-16T16:30:33.958Z,39.80
2019-04-16T16:33:06.154Z,40.00
2019-04-16T16:35:38.283Z,39.60
2019-04-16T16:38:13.923Z,38.60
2019-04-16T16:40:49.452Z,38.40
2019-04-16T16:43:20.271Z,39.80
2019-04-16T16:46:03.581Z,39.20
2019-04-16T16:48:36.552Z,38.10
2019-04-16T16:51:08.769Z,38.00
2019-04-16T16:53:52.135Z,37.70
2019-04-16T16:56:31.338Z,38.50
2019-04-16T16:59:08.142Z,37.80
2019-04-16T17:01:56.209Z,39.50
2019-04-16T17:04:34.923Z,38.70
2019-04-16T17:07:07.795Z,38.80
2019-04-16T17:09:39.913Z,39.20
2019-04-16T17:12:12.357Z,38.70
2019-04-16T17:14:44.614Z,40.10
2019-04-16T17:17:17.687Z,41.20
2019-04-16T17:19:50.893Z,40.90
2019-04-16T17:22:23.704Z,41.10
2019-04-16T17:24:56.438Z,42.70
2019-04-16T17:27:28.946Z,41.70
2019-04-16T17:30:01.030Z,40.70
2019-04-16T17:32:33.141Z,41.30
2019-04-16T17:35:07.614Z,41.60
2019-04-16T17:37:39.871Z,41.00
2019-04-16T17:40:22.768Z,41.40
2019-04-16T17:42:59.323Z,40.70
2019-04-16T17:45:48.810Z,40.90
2019-04-16T17:48:37.026Z,40.50
2019-04-16T17:51:36.930Z,41.30
2019-04-16T17:54:20.756Z,41.20
2019-04-16T17:57:10.050Z,41.30
2019-04-16T17:59:49.259Z,41.30
2019-04-16T18:02:38.472Z,42.20
2019-04-16T18:05:29.766Z,42.30
2019-04-16T18:08:19.678Z,42.80
2019-04-16T18:10:55.973Z,43.40
2019-04-16T18:13:47.665Z,43.90
2019-04-16T18:16:23.951Z,44.70
2019-04-16T18:19:24.696Z,45.20
2019-04-16T18:22:06.833Z,46.40
2019-04-16T18:25:06.708Z,46.90
2019-04-16T18:27:42.410Z,47.40
2019-04-16T18:30:32.287Z,47.60
2019-04-16T18:33:32.186Z,47.80
2019-04-16T18:36:14.156Z,48.40
2019-04-16T18:39:09.915Z,48.60
2019-04-16T18:41:55.801Z,49.00
2019-04-16T18:44:58.994Z,48.80
2019-04-16T18:47:38.626Z,48.90
2019-04-16T18:50:15.259Z,48.80
2019-04-16T18:52:47.342Z,48.60
2019-04-16T18:55:19.806Z,48.70
2019-04-16T18:57:52.824Z,48.10
2019-04-16T19:00:43.523Z,48.00
2019-04-16T19:03:16.135Z,47.60
2019-04-16T19:05:48.690Z,47.60
2019-04-16T19:08:20.872Z,47.50
2019-04-16T19:10:53.331Z,48.20
2019-04-16T19:13:26.257Z,48.70
2019-04-16T19:15:58.795Z,48.90
2019-04-16T19:18:31.312Z,49.50
2019-04-16T19:21:03.928Z,50.00
2019-04-16T19:23:36.385Z,50.80
2019-04-16T19:26:08.515Z,51.60
2019-04-16T19:28:45.351Z,51.80
2019-04-16T19:31:16.361Z,51.80
2019-04-16T19:33:49.473Z,51.40
2019-04-16T19:36:25.000Z,51.30
2019-04-16T19:38:56.698Z,51.00
2019-04-16T19:41:30.249Z,50.60
2019-04-16T19:44:06.348Z,50.30
2019-04-16T19:46:37.304Z,50.60
2019-04-16T19:49:09.715Z,49.60
2019-04-16T19:51:42.684Z,49.80
2019-04-16T19:54:15.201Z,50.20
2019-04-16T19:56:51.406Z,48.90
2019-04-16T19:59:24.068Z,50.00
2019-04-16T20:01:59.811Z,50.10
2019-04-16T20:04:30.830Z,50.60
2019-04-16T20:07:03.578Z,50.80
2019-04-16T20:09:38.918Z,50.90
2019-04-16T20:12:09.806Z,51.50
2019-04-16T20:14:41.822Z,52.70
2019-04-16T20:17:15.020Z,53.00
2019-04-16T20:20:01.033Z,52.90
2019-04-16T20:22:33.884Z,52.80
2019-04-16T20:25:07.236Z,51.80
2019-04-16T20:27:40.584Z,51.80
2019-04-16T20:30:15.068Z,51.50
2019-04-16T20:32:48.179Z,51.60
2019-04-16T20:35:20.253Z,51.60
2019-04-16T20:37:54.343Z,50.50
2019-04-16T20:40:26.127Z,50.70
2019-04-16T20:42:58.711Z,50.80
2019-04-16T20:45:30.908Z,51.10
2019-04-16T20:48:03.212Z,50.80
2019-04-16T20:50:35.558Z,50.20
2019-04-16T20:53:09.294Z,51.00
2019-04-16T20:55:47.211Z,51.20
2019-04-16T20:58:16.079Z,50.90
2019-04-16T21:00:50.410Z,50.40
2019-04-16T21:03:23.707Z,50.40
2019-04-16T21:05:58.925Z,50.90
2019-04-16T21:08:31.095Z,50.70
2019-04-16T21:11:07.664Z,50.20
2019-04-16T21:13:37.234Z,50.40
2019-04-16T21:16:10.174Z,49.90
2019-04-16T21:18:43.155Z,50.30
2019-04-16T21:21:15.649Z,49.80
2019-04-16T21:23:48.198Z,50.10
2019-04-16T21:26:20.286Z,50.20
2019-04-16T21:29:02.224Z,50.70
2019-04-16T21:31:42.381Z,50.60
2019-04-16T21:34:17.775Z,50.40
2019-04-16T21:37:10.625Z,49.80
2019-04-16T21:39:53.437Z,49.80
2019-04-16T21:42:26.272Z,49.30
2019-04-16T21:44:58.705Z,48.70
2019-04-16T21:47:30.887Z,49.30
2019-04-16T21:50:04.250Z,49.40
2019-04-16T21:52:36.707Z,49.00
2019-04-16T21:55:09.677Z,48.90
2019-04-16T21:57:42.789Z,48.50
2019-04-16T22:00:34.735Z,48.80
2019-04-16T22:03:10.732Z,48.90
2019-04-16T22:05:48.135Z,48.90
2019-04-16T22:08:16.850Z,49.80
2019-04-16T22:10:48.971Z,49.80
2019-04-16T22:13:21.797Z,49.80
2019-04-16T22:15:57.247Z,50.40
2019-04-16T22:18:28.283Z,51.40
2019-04-16T22:21:00.938Z,52.40
2019-04-16T22:23:33.439Z,52.70
2019-04-16T22:26:09.576Z,54.10
2019-04-16T22:28:44.162Z,54.80
2019-04-16T22:31:13.873Z,55.90
2019-04-16T22:33:45.951Z,57.30
2019-04-16T22:36:18.065Z,57.10
2019-04-16T22:38:54.204Z,57.60
2019-04-16T22:41:58.371Z,58.20
2019-04-16T22:44:49.331Z,58.80
2019-04-16T22:47:26.054Z,59.30
2019-04-16T22:50:14.080Z,58.40
2019-04-16T22:52:32.073Z,55.50
2019-04-16T22:55:04.566Z,54.60
2019-04-16T22:57:37.004Z,54.30
2019-04-16T23:00:17.486Z,55.20
2019-04-16T23:02:50.038Z,55.70
2019-04-16T23:05:22.126Z,55.20
2019-04-16T23:07:54.666Z,56.00
2019-04-16T23:10:26.756Z,57.10
2019-04-16T23:13:00.360Z,57.10
2019-04-16T23:15:34.093Z,58.90
2019-04-16T23:18:06.325Z,59.20
2019-04-16T23:20:39.857Z,61.40
2019-04-16T23:23:11.822Z,59.70
2019-04-16T23:25:44.174Z,58.50
2019-04-16T23:28:16.566Z,60.10
2019-04-16T23:30:51.118Z,60.20
2019-04-16T23:33:22.987Z,59.90
2019-04-16T23:35:55.243Z,60.50
2019-04-16T23:38:31.190Z,59.80
2019-04-16T23:41:01.588Z,59.50
2019-04-16T23:43:43.786Z,59.50
2019-04-16T23:46:31.458Z,59.60
2019-04-16T23:49:37.225Z,61.00
2019-04-16T23:52:12.701Z,61.80
2019-04-16T23:55:06.815Z,62.00
2019-04-16T23:57:58.166Z,63.00
